Time;durP1;ratioP1;P1;durP2;ratioP2;P2;SDS_P1;SDS_P2;PMS_P1;PMS_P2;Temp;Humidity;BMP_temperature;BMP_pressure;BME280_temperature;BME280_humidity;BME280_pressure;Samples;Min_cycle;Max_cycle;Signal;HPM_P1;HPM_P2
2022/10/16 00:00:44;;;;;;;8.00;4.10;;;13.60;99.90;;;;;;5015859;28;20879;-65
2022/10/16 00:03:12;;;;;;;7.97;5.20;;;13.60;99.90;;;;;;5015941;28;20446;-64
2022/10/16 00:05:40;;;;;;;6.13;4.20;;;13.60;99.90;;;;;;5015807;28;20446;-64
2022/10/16 00:08:08;;;;;;;5.73;3.20;;;13.60;99.90;;;;;;5015599;28;20450;-64
2022/10/16 00:10:35;;;;;;;5.80;3.83;;;13.60;99.90;;;;;;5015555;28;20477;-65
2022/10/16 00:13:03;;;;;;;4.27;2.80;;;13.60;99.90;;;;;;5015772;28;20447;-65
2022/10/16 00:15:35;;;;;;;4.93;3.67;;;13.50;99.90;;;;;;5015706;28;20501;-65
2022/10/16 00:18:03;;;;;;;5.50;3.20;;;13.50;99.90;;;;;;5015446;28;20529;-65
2022/10/16 00:20:31;;;;;;;4.70;2.50;;;13.40;99.90;;;;;;5015423;28;20906;-65
2022/10/16 00:22:58;;;;;;;6.60;4.20;;;13.40;99.90;;;;;;5015223;28;20530;-64
2022/10/16 00:25:25;;;;;;;6.10;4.20;;;13.30;99.90;;;;;;5015543;28;20864;-65
2022/10/16 00:27:52;;;;;;;4.20;2.90;;;13.40;99.90;;;;;;5015585;28;20520;-64
2022/10/16 00:30:19;;;;;;;3.50;2.53;;;13.30;99.90;;;;;;5015393;28;20492;-64
2022/10/16 00:32:47;;;;;;;4.87;3.30;;;13.30;99.90;;;;;;5015377;28;20967;-64
2022/10/16 00:35:14;;;;;;;6.60;5.00;;;13.30;99.90;;;;;;5015152;28;20715;-65
2022/10/16 00:37:41;;;;;;;5.73;4.27;;;13.20;99.90;;;;;;5015259;28;20474;-65
2022/10/16 00:40:09;;;;;;;5.00;3.50;;;13.20;99.90;;;;;;5014017;28;20467;-65
2022/10/16 00:42:36;;;;;;;3.63;3.00;;;13.20;99.90;;;;;;5015254;28;20438;-65
2022/10/16 00:45:04;;;;;;;4.40;2.80;;;13.20;99.90;;;;;;5014650;28;21003;-65
2022/10/16 00:47:35;;;;;;;3.40;2.33;;;13.20;99.90;;;;;;5015030;28;20486;-64
2022/10/16 00:50:08;;;;;;;3.30;2.17;;;13.30;99.90;;;;;;5014619;28;20446;-64
2022/10/16 00:52:35;;;;;;;2.40;1.70;;;13.30;99.90;;;;;;5015105;28;20443;-64
2022/10/16 00:55:05;;;;;;;4.07;1.30;;;13.30;99.90;;;;;;5014631;28;20466;-64
2022/10/16 00:57:32;;;;;;;3.47;1.90;;;13.40;99.90;;;;;;5014789;28;20447;-66
2022/10/16 00:59:59;;;;;;;2.80;1.63;;;13.40;99.90;;;;;;5014340;28;20926;-64
2022/10/16 01:02:26;;;;;;;4.07;1.70;;;13.50;99.90;;;;;;5014846;28;20529;-65
2022/10/16 01:04:55;;;;;;;2.43;1.70;;;13.50;99.90;;;;;;5014989;28;20489;-65
2022/10/16 01:07:42;;;;;;;15.43;2.10;;;13.50;99.90;;;;;;5014948;28;20434;-64
2022/10/16 01:10:22;;;;;;;2.53;1.80;;;13.50;99.90;;;;;;5014569;28;20434;-65
2022/10/16 01:12:55;;;;;;;3.17;1.50;;;13.40;99.90;;;;;;5014661;28;20438;-65
2022/10/16 01:15:28;;;;;;;2.70;1.60;;;13.40;99.90;;;;;;5014829;28;20442;-64
2022/10/16 01:18:02;;;;;;;2.17;1.63;;;13.40;99.90;;;;;;5014498;28;20443;-65
2022/10/16 01:20:32;;;;;;;2.30;1.50;;;13.40;99.90;;;;;;5014011;28;20219;-64
2022/10/16 01:23:20;;;;;;;2.77;1.80;;;13.30;99.90;;;;;;5013777;28;20501;-65
2022/10/16 01:26:07;;;;;;;4.57;1.93;;;13.20;99.90;;;;;;5013980;28;20976;-64
2022/10/16 01:28:40;;;;;;;2.67;1.70;;;13.10;99.90;;;;;;5014141;28;21008;-65
2022/10/16 01:31:11;;;;;;;2.60;1.40;;;13.10;99.90;;;;;;5014282;28;20443;-64
2022/10/16 01:33:42;;;;;;;2.47;1.40;;;13.10;99.90;;;;;;5014334;28;20831;-64
2022/10/16 01:36:14;;;;;;;3.70;2.00;;;13.00;99.90;;;;;;5013505;28;20882;-64
2022/10/16 01:38:42;;;;;;;2.67;1.83;;;13.00;99.90;;;;;;5014126;28;20435;-64
2022/10/16 01:41:13;;;;;;;4.60;1.90;;;12.90;99.90;;;;;;5014029;28;20486;-64
2022/10/16 01:43:46;;;;;;;1.90;1.00;;;12.90;99.90;;;;;;5013752;28;20431;-64
2022/10/16 01:46:16;;;;;;;3.15;1.00;;;12.80;99.70;;;;;;5013998;28;20439;-64
2022/10/16 01:48:43;;;;;;;4.60;2.03;;;12.70;99.70;;;;;;5013509;28;20221;-64
2022/10/16 01:51:13;;;;;;;2.38;1.23;;;12.70;99.90;;;;;;5013809;28;20541;-64
2022/10/16 01:53:41;;;;;;;3.33;1.93;;;12.70;99.90;;;;;;5013856;28;20704;-64
2022/10/16 01:56:11;;;;;;;3.23;2.03;;;12.60;99.90;;;;;;5013616;28;20444;-64
2022/10/16 01:58:43;;;;;;;5.13;2.27;;;12.60;99.90;;;;;;5013205;28;20488;-65
2022/10/16 02:01:13;;;;;;;3.37;2.07;;;12.60;99.90;;;;;;5012580;28;20881;-64
2022/10/16 02:03:43;;;;;;;3.58;1.80;;;12.60;99.90;;;;;;5013696;28;20497;-64
2022/10/16 02:06:10;;;;;;;2.80;1.83;;;12.60;99.90;;;;;;5013333;28;20235;-64
2022/10/16 02:08:40;;;;;;;2.95;1.70;;;12.50;99.90;;;;;;5013580;28;20242;-64
2022/10/16 02:11:07;;;;;;;3.30;1.80;;;12.50;99.90;;;;;;5013413;28;20281;-64
2022/10/16 02:13:39;;;;;;;2.73;1.83;;;12.50;99.90;;;;;;5013237;28;20474;-65
2022/10/16 02:16:10;;;;;;;4.63;2.35;;;12.60;99.90;;;;;;5013257;28;20846;-64
2022/10/16 02:18:37;;;;;;;2.93;2.27;;;12.60;99.90;;;;;;5013468;28;20200;-64
2022/10/16 02:21:11;;;;;;;2.90;2.33;;;12.60;99.90;;;;;;5013136;28;20478;-64
2022/10/16 02:23:46;;;;;;;4.07;2.85;;;12.60;99.90;;;;;;5013402;28;20492;-65
2022/10/16 02:26:18;;;;;;;3.40;2.50;;;12.60;99.90;;;;;;5013297;28;20708;-64
2022/10/16 02:28:48;;;;;;;4.25;2.70;;;12.60;99.90;;;;;;5013233;28;20200;-65
2022/10/16 02:31:24;;;;;;;8.82;2.83;;;12.70;99.90;;;;;;5012869;28;20262;-64
2022/10/16 02:33:53;;;;;;;4.93;3.57;;;12.70;99.90;;;;;;5013211;28;20202;-64
2022/10/16 02:36:21;;;;;;;3.27;2.60;;;12.70;99.90;;;;;;5012847;28;20544;-64
2022/10/16 02:38:48;;;;;;;3.00;2.30;;;12.70;99.90;;;;;;5012727;28;20466;-64
2022/10/16 02:41:15;;;;;;;4.70;2.40;;;12.70;99.90;;;;;;5013104;28;20569;-64
2022/10/16 02:43:42;;;;;;;6.77;2.40;;;12.80;99.90;;;;;;5012983;28;20778;-64
2022/10/16 02:46:10;;;;;;;3.13;1.67;;;12.80;99.90;;;;;;5012995;28;20485;-64
2022/10/16 02:48:39;;;;;;;3.33;1.97;;;12.80;99.90;;;;;;5012935;28;20450;-64
2022/10/16 02:51:06;;;;;;;4.10;1.52;;;12.80;99.90;;;;;;5012556;28;20493;-64
2022/10/16 02:53:33;;;;;;;5.65;1.70;;;12.90;99.90;;;;;;5012932;28;20195;-65
2022/10/16 02:56:00;;;;;;;2.77;1.53;;;12.90;99.90;;;;;;5012813;28;20203;-64
2022/10/16 02:58:27;;;;;;;2.78;1.55;;;12.90;99.90;;;;;;5012864;28;20439;-65
2022/10/16 03:00:54;;;;;;;9.00;1.90;;;12.90;99.90;;;;;;5012910;28;20211;-64
2022/10/16 03:03:20;;;;;;;2.03;1.30;;;12.90;99.90;;;;;;5012984;28;20207;-64
2022/10/16 03:05:49;;;;;;;3.13;1.47;;;12.90;99.90;;;;;;5012821;28;20501;-64
2022/10/16 03:08:16;;;;;;;2.88;1.30;;;12.90;99.90;;;;;;5012775;28;20859;-64
2022/10/16 03:10:43;;;;;;;2.53;1.60;;;12.90;99.90;;;;;;5012680;28;20712;-64
2022/10/16 03:13:10;;;;;;;3.70;1.50;;;12.90;99.90;;;;;;5016035;28;20245;-64
2022/10/16 03:15:36;;;;;;;2.00;1.10;;;12.90;99.90;;;;;;5016771;28;20443;-64
2022/10/16 03:18:04;;;;;;;2.27;1.37;;;12.90;99.90;;;;;;5016718;28;20442;-64
2022/10/16 03:20:30;;;;;;;4.00;1.80;;;12.90;99.90;;;;;;5016474;28;20450;-64
2022/10/16 03:22:59;;;;;;;3.53;1.90;;;12.90;99.90;;;;;;5016563;28;20847;-65
2022/10/16 03:25:26;;;;;;;2.87;2.10;;;12.90;99.90;;;;;;5016586;28;20446;-66
2022/10/16 03:27:53;;;;;;;2.60;1.53;;;12.90;99.90;;;;;;5016568;28;20501;-65
2022/10/16 03:30:20;;;;;;;3.07;1.87;;;12.90;99.90;;;;;;5016311;28;20902;-64
2022/10/16 03:32:47;;;;;;;3.90;1.90;;;12.80;99.90;;;;;;5016388;28;20438;-64
2022/10/16 03:35:14;;;;;;;3.03;1.60;;;12.70;99.90;;;;;;5016433;28;20528;-66
2022/10/16 03:37:41;;;;;;;4.17;1.80;;;12.60;99.90;;;;;;5016196;28;20223;-64
2022/10/16 03:40:10;;;;;;;2.10;1.20;;;12.60;99.90;;;;;;5016265;28;20442;-64
2022/10/16 03:42:37;;;;;;;2.67;1.47;;;12.60;99.90;;;;;;5016142;28;20494;-65
2022/10/16 03:45:05;;;;;;;2.83;1.60;;;12.50;99.90;;;;;;5016181;28;20450;-64
2022/10/16 03:47:33;;;;;;;2.50;1.67;;;12.50;99.90;;;;;;5016154;28;20450;-64
2022/10/16 03:50:00;;;;;;;6.32;1.23;;;12.50;99.90;;;;;;5015674;28;20192;-64
2022/10/16 03:52:28;;;;;;;2.13;1.10;;;12.50;99.90;;;;;;5016127;28;20242;-69
2022/10/16 03:54:55;;;;;;;2.40;1.33;;;12.60;99.90;;;;;;5015818;28;20439;-65
2022/10/16 03:57:23;;;;;;;3.17;1.83;;;12.60;99.90;;;;;;5016105;28;20938;-64
2022/10/16 03:59:50;;;;;;;4.53;2.17;;;12.60;99.90;;;;;;5015777;28;20833;-64
2022/10/16 04:02:17;;;;;;;3.60;3.17;;;12.60;99.90;;;;;;5015994;28;20992;-64
2022/10/16 04:04:44;;;;;;;3.13;2.42;;;12.60;99.90;;;;;;5016217;28;20492;-64
2022/10/16 04:07:11;;;;;;;6.10;3.00;;;12.60;99.90;;;;;;5016146;28;20188;-64
2022/10/16 04:09:38;;;;;;;3.53;3.00;;;12.60;99.90;;;;;;5016090;28;20626;-64
2022/10/16 04:12:05;;;;;;;3.17;2.20;;;12.70;99.90;;;;;;5015847;28;20505;-64
2022/10/16 04:14:33;;;;;;;2.75;1.80;;;12.60;99.90;;;;;;5015982;28;20246;-64
2022/10/16 04:17:00;;;;;;;2.72;1.60;;;12.70;99.90;;;;;;5016031;28;20199;-65
2022/10/16 04:19:27;;;;;;;3.80;2.07;;;12.70;99.90;;;;;;5015979;28;20508;-65
2022/10/16 04:21:54;;;;;;;3.20;1.73;;;12.60;99.90;;;;;;5015878;28;20482;-64
2022/10/16 04:24:21;;;;;;;4.38;1.88;;;12.60;99.90;;;;;;5015124;28;20199;-67
2022/10/16 04:26:48;;;;;;;4.00;1.60;;;12.50;99.90;;;;;;5015770;28;20199;-64
2022/10/16 04:29:15;;;;;;;4.80;1.90;;;12.50;99.90;;;;;;5015846;28;20451;-64
2022/10/16 04:31:43;;;;;;;5.60;1.87;;;12.30;99.90;;;;;;5015779;28;20442;-64
2022/10/16 04:34:10;;;;;;;6.57;2.65;;;12.30;99.90;;;;;;5015624;28;20980;-64
2022/10/16 04:36:37;;;;;;;6.85;3.10;;;12.30;99.90;;;;;;5015537;28;20215;-64
2022/10/16 04:39:04;;;;;;;6.43;3.65;;;12.30;99.90;;;;;;5015289;28;20196;-64
2022/10/16 04:41:31;;;;;;;3.63;2.93;;;12.40;99.90;;;;;;5015512;28;20619;-65
2022/10/16 04:43:58;;;;;;;4.20;2.13;;;12.30;99.90;;;;;;5015270;28;20443;-64
2022/10/16 04:46:25;;;;;;;4.07;2.40;;;12.30;99.90;;;;;;5015460;28;20265;-65
2022/10/16 04:48:54;;;;;;;7.20;3.13;;;12.30;99.90;;;;;;5015805;28;20200;-64
2022/10/16 04:51:20;;;;;;;5.20;2.88;;;12.40;99.90;;;;;;5015353;28;20442;-64
2022/10/16 04:53:47;;;;;;;5.13;2.37;;;12.40;99.90;;;;;;5015352;28;20269;-64
2022/10/16 04:56:15;;;;;;;5.53;2.30;;;12.50;99.90;;;;;;5014872;28;20493;-66
2022/10/16 04:58:42;;;;;;;5.15;2.60;;;12.50;99.90;;;;;;5015201;28;20541;-65
2022/10/16 05:01:09;;;;;;;5.35;2.38;;;12.50;99.90;;;;;;5015034;28;20238;-65
2022/10/16 05:03:36;;;;;;;3.15;1.90;;;12.50;99.90;;;;;;5015087;28;20533;-64
2022/10/16 05:06:06;;;;;;;3.37;2.03;;;12.60;99.90;;;;;;5015102;28;20192;-65
2022/10/16 05:08:33;;;;;;;3.63;2.10;;;12.60;99.90;;;;;;5014900;28;20489;-65
2022/10/16 05:11:01;;;;;;;4.13;2.90;;;12.60;99.90;;;;;;5015028;28;20439;-64
2022/10/16 05:13:28;;;;;;;8.82;3.13;;;12.70;99.90;;;;;;5014923;28;20451;-64
2022/10/16 05:15:55;;;;;;;5.10;4.07;;;12.70;99.90;;;;;;5015002;28;20192;-65
2022/10/16 05:18:22;;;;;;;11.23;4.40;;;12.70;99.90;;;;;;5014987;28;20195;-64
2022/10/16 05:20:49;;;;;;;3.67;2.45;;;12.80;99.90;;;;;;5014806;28;20443;-64
2022/10/16 05:23:17;;;;;;;2.83;1.73;;;12.80;99.90;;;;;;5014629;28;20859;-64
2022/10/16 05:25:44;;;;;;;5.73;1.63;;;12.70;99.90;;;;;;5014737;28;20835;-64
2022/10/16 05:28:11;;;;;;;4.20;1.45;;;12.70;99.90;;;;;;5014434;28;20446;-65
2022/10/16 05:30:39;;;;;;;4.20;2.00;;;12.70;99.90;;;;;;5014688;28;20191;-64
2022/10/16 05:33:06;;;;;;;9.47;3.30;;;12.60;99.90;;;;;;5014526;28;20435;-64
2022/10/16 05:35:34;;;;;;;2.53;1.40;;;12.50;99.90;;;;;;5014417;28;20438;-64
2022/10/16 05:38:01;;;;;;;4.03;1.80;;;12.50;99.90;;;;;;5014440;28;20474;-65
2022/10/16 05:40:30;;;;;;;2.40;1.50;;;12.50;99.90;;;;;;5014141;28;20525;-66
2022/10/16 05:42:57;;;;;;;2.40;1.80;;;12.50;99.90;;;;;;5014361;28;20482;-65
2022/10/16 05:45:24;;;;;;;3.53;1.95;;;12.40;99.90;;;;;;5014440;28;20489;-64
2022/10/16 05:47:51;;;;;;;2.30;1.70;;;12.40;99.90;;;;;;5014424;28;20196;-64
2022/10/16 05:50:18;;;;;;;3.17;1.57;;;12.40;99.90;;;;;;5013956;28;20541;-64
2022/10/16 05:52:45;;;;;;;4.97;1.97;;;12.50;99.90;;;;;;5014270;28;20434;-65
2022/10/16 05:55:12;;;;;;;2.90;1.83;;;12.50;99.90;;;;;;5014209;28;20438;-64
2022/10/16 05:57:40;;;;;;;2.50;1.65;;;12.50;99.90;;;;;;5013987;28;20466;-64
2022/10/16 06:00:08;;;;;;;3.03;2.10;;;12.50;99.90;;;;;;5013909;28;20238;-64
2022/10/16 06:02:35;;;;;;;4.80;2.03;;;12.50;99.90;;;;;;5013924;28;21051;-64
2022/10/16 06:05:02;;;;;;;3.38;2.40;;;12.50;99.90;;;;;;5013716;28;20246;-65
2022/10/16 06:07:29;;;;;;;5.60;3.15;;;12.50;99.90;;;;;;5013951;28;20195;-64
2022/10/16 06:09:56;;;;;;;7.10;3.83;;;12.50;99.90;;;;;;5013968;28;20692;-65
2022/10/16 06:12:23;;;;;;;8.27;3.70;;;12.70;99.90;;;;;;5013761;28;20976;-64
2022/10/16 06:14:51;;;;;;;4.80;3.80;;;12.70;99.90;;;;;;5014035;28;20442;-64
2022/10/16 06:17:18;;;;;;;4.17;3.47;;;12.90;99.90;;;;;;5013876;28;20497;-64
2022/10/16 06:19:45;;;;;;;4.10;2.63;;;13.00;99.90;;;;;;5013766;28;20933;-64
2022/10/16 06:22:12;;;;;;;4.90;3.60;;;13.00;99.90;;;;;;5013479;28;21062;-65
2022/10/16 06:24:39;;;;;;;4.53;3.30;;;13.00;99.90;;;;;;5013956;28;20441;-64
2022/10/16 06:27:06;;;;;;;4.47;3.17;;;13.20;99.90;;;;;;5013654;28;20806;-64
2022/10/16 06:29:33;;;;;;;8.47;2.83;;;13.40;99.90;;;;;;5013402;28;20779;-65
2022/10/16 06:32:01;;;;;;;5.37;3.27;;;13.80;99.90;;;;;;5013268;28;20930;-65
2022/10/16 06:34:28;;;;;;;6.27;5.03;;;14.00;99.90;;;;;;5013174;28;20534;-65
2022/10/16 06:36:55;;;;;;;7.03;4.67;;;14.20;99.90;;;;;;5013325;28;20537;-64
2022/10/16 06:39:22;;;;;;;5.13;4.53;;;14.60;99.90;;;;;;5013602;28;20439;-64
2022/10/16 06:41:49;;;;;;;4.70;4.13;;;14.70;99.90;;;;;;5012775;28;20879;-65
2022/10/16 06:44:16;;;;;;;6.30;4.20;;;14.90;99.90;;;;;;5013402;28;20446;-64
2022/10/16 06:46:43;;;;;;;5.57;2.93;;;15.50;99.90;;;;;;5012740;28;20442;-65
2022/10/16 06:49:11;;;;;;;5.17;3.13;;;16.00;98.50;;;;;;5013335;28;20489;-64
2022/10/16 06:51:43;;;;;;;5.33;2.70;;;16.30;98.10;;;;;;5013279;28;20440;-65
2022/10/16 06:54:10;;;;;;;8.00;4.50;;;16.50;98.20;;;;;;5013297;28;20443;-64
2022/10/16 06:56:37;;;;;;;4.73;3.40;;;17.10;97.60;;;;;;5013145;28;20480;-65
2022/10/16 06:59:04;;;;;;;5.17;2.77;;;17.90;97.20;;;;;;5013521;28;20460;-65
2022/10/16 07:01:31;;;;;;;4.20;2.90;;;18.50;95.30;;;;;;5013267;28;20487;-67
2022/10/16 07:03:58;;;;;;;6.03;3.47;;;18.60;94.10;;;;;;5013228;28;20464;-65
2022/10/16 07:06:28;;;;;;;6.70;2.60;;;19.30;93.00;;;;;;5013104;28;20446;-65
2022/10/16 07:08:55;;;;;;;5.43;2.67;;;19.30;90.90;;;;;;5012934;28;20442;-65
2022/10/16 07:11:24;;;;;;;4.70;2.60;;;18.90;90.30;;;;;;5013225;28;20446;-65
2022/10/16 07:13:52;;;;;;;6.73;2.63;;;18.50;91.40;;;;;;5012955;28;20503;-65
2022/10/16 07:16:20;;;;;;;6.03;3.33;;;18.30;91.90;;;;;;5012893;28;20472;-65
2022/10/16 07:18:49;;;;;;;8.00;2.57;;;18.20;91.30;;;;;;5013115;28;20520;-65
2022/10/16 07:21:17;;;;;;;4.83;2.90;;;18.00;91.40;;;;;;5012907;28;20435;-65
2022/10/16 07:23:46;;;;;;;3.50;2.50;;;17.90;92.10;;;;;;5012924;28;20518;-63
2022/10/16 07:26:13;;;;;;;6.10;2.77;;;18.00;92.20;;;;;;5012596;28;20984;-63
2022/10/16 07:28:40;;;;;;;4.40;2.50;;;18.10;91.60;;;;;;5012870;28;20504;-63
2022/10/16 07:31:11;;;;;;;4.60;2.43;;;18.10;91.90;;;;;;5012996;28;20461;-64
2022/10/16 07:33:39;;;;;;;6.37;2.50;;;18.60;92.10;;;;;;5012923;28;20447;-63
2022/10/16 07:36:06;;;;;;;2.97;2.40;;;20.40;91.60;;;;;;5012731;28;20528;-63
2022/10/16 07:38:33;;;;;;;4.93;3.50;;;22.40;85.60;;;;;;5012817;28;20507;-63
2022/10/16 07:41:04;;;;;;;2.60;2.10;;;24.40;75.90;;;;;;5012911;28;20435;-63
2022/10/16 07:43:32;;;;;;;3.80;2.10;;;26.20;64.80;;;;;;5012752;28;20490;-63
2022/10/16 07:45:59;;;;;;;6.13;2.20;;;27.80;57.40;;;;;;5012190;28;20938;-64
2022/10/16 07:48:29;;;;;;;5.20;2.33;;;29.00;53.90;;;;;;5012881;28;20443;-65
2022/10/16 07:50:59;;;;;;;4.00;2.77;;;30.30;48.50;;;;;;5013026;28;20484;-63
2022/10/16 07:53:26;;;;;;;4.37;2.00;;;31.20;45.20;;;;;;5013150;28;20516;-63
2022/10/16 07:55:53;;;;;;;5.87;2.80;;;32.10;41.50;;;;;;5012591;28;20439;-63
2022/10/16 07:58:22;;;;;;;5.40;3.63;;;33.10;39.70;;;;;;5012867;28;20447;-64
2022/10/16 08:00:49;;;;;;;5.70;3.40;;;34.00;36.10;;;;;;5016281;28;21111;-64
2022/10/16 08:03:16;;;;;;;5.00;3.13;;;34.70;34.90;;;;;;5016310;28;20568;-64
2022/10/16 08:05:43;;;;;;;4.00;2.70;;;35.50;34.30;;;;;;5015934;28;20497;-64
2022/10/16 08:08:13;;;;;;;4.10;2.60;;;36.50;33.00;;;;;;5016278;28;20493;-65
2022/10/16 08:10:40;;;;;;;3.13;2.27;;;37.40;30.40;;;;;;5014792;28;20513;-65
2022/10/16 08:13:07;;;;;;;4.63;2.53;;;37.70;29.30;;;;;;5016014;28;20481;-65
2022/10/16 08:15:36;;;;;;;3.10;2.07;;;38.30;28.70;;;;;;5015525;28;20443;-64
2022/10/16 08:18:05;;;;;;;5.23;2.47;;;39.10;27.90;;;;;;5015732;28;20447;-65
2022/10/16 08:20:34;;;;;;;4.50;2.63;;;40.10;26.70;;;;;;5015379;28;20540;-64
2022/10/16 08:23:02;;;;;;;6.30;2.03;;;41.10;25.60;;;;;;5015789;28;20930;-65
2022/10/16 08:25:29;;;;;;;4.83;3.03;;;41.70;25.10;;;;;;5015712;28;20443;-65
2022/10/16 08:27:56;;;;;;;5.10;3.33;;;42.50;23.80;;;;;;5015974;28;20502;-65
2022/10/16 08:30:25;;;;;;;5.23;4.43;;;43.20;23.30;;;;;;5015868;28;20501;-65
2022/10/16 08:32:53;;;;;;;5.60;3.93;;;43.80;22.40;;;;;;5015695;28;20587;-64
2022/10/16 08:35:20;;;;;;;3.70;2.40;;;44.50;21.30;;;;;;5015683;28;20521;-64
2022/10/16 08:37:47;;;;;;;4.47;2.47;;;45.00;21.20;;;;;;5015148;28;20470;-65
2022/10/16 08:40:20;;;;;;;3.17;2.50;;;45.50;19.50;;;;;;5015467;28;20941;-65
2022/10/16 08:43:24;;;;;;;3.77;2.80;;;45.90;19.80;;;;;;5015417;28;20521;-65
2022/10/16 08:46:07;;;;;;;3.20;2.10;;;46.70;19.90;;;;;;5015174;28;20979;-65
2022/10/16 08:48:45;;;;;;;3.50;2.00;;;47.50;18.90;;;;;;5015589;28;20443;-65
2022/10/16 08:51:19;;;;;;;5.47;2.30;;;48.20;18.30;;;;;;5015418;28;20461;-65
2022/10/16 08:53:50;;;;;;;5.43;1.87;;;48.50;18.10;;;;;;5015389;28;20490;-65
2022/10/16 08:56:18;;;;;;;3.53;2.47;;;49.00;17.80;;;;;;5015281;28;20477;-64
2022/10/16 08:58:46;;;;;;;2.90;2.17;;;49.60;17.60;;;;;;5015116;28;20434;-65
2022/10/16 09:01:15;;;;;;;2.50;1.93;;;50.00;16.70;;;;;;5015215;28;20443;-64
2022/10/16 09:04:05;;;;;;;4.20;1.97;;;50.40;16.00;;;;;;5014907;28;20442;-64
2022/10/16 09:06:52;;;;;;;6.17;1.90;;;50.80;15.50;;;;;;5015132;28;20520;-65
2022/10/16 09:09:34;;;;;;;3.17;1.50;;;51.00;14.80;;;;;;5014402;28;20513;-65
2022/10/16 09:12:06;;;;;;;2.83;1.47;;;51.00;14.20;;;;;;5014827;28;20439;-65
2022/10/16 09:14:45;;;;;;;2.70;1.80;;;51.10;15.10;;;;;;5014828;28;20478;-65
2022/10/16 09:17:24;;;;;;;3.00;1.87;;;51.60;13.50;;;;;;5014922;28;20438;-64
2022/10/16 09:19:57;;;;;;;2.83;2.00;;;51.80;13.60;;;;;;5014895;28;20842;-64
2022/10/16 09:22:28;;;;;;;3.33;1.80;;;52.00;13.00;;;;;;5014971;28;20980;-64
2022/10/16 09:25:00;;;;;;;2.83;1.83;;;52.10;13.80;;;;;;5014817;28;20553;-65
2022/10/16 09:27:27;;;;;;;3.17;1.90;;;52.20;13.60;;;;;;5014170;28;20427;-65
2022/10/16 09:29:55;;;;;;;3.17;1.53;;;52.60;13.40;;;;;;5014485;28;20484;-64
2022/10/16 09:32:24;;;;;;;2.40;1.63;;;52.90;13.40;;;;;;5014314;28;20500;-64
2022/10/16 09:34:57;;;;;;;2.53;1.90;;;53.30;12.60;;;;;;5014483;28;20434;-64
2022/10/16 09:37:26;;;;;;;5.53;1.80;;;53.40;12.50;;;;;;5014450;28;20478;-65
2022/10/16 09:39:54;;;;;;;4.40;2.00;;;53.60;13.00;;;;;;5014395;28;20438;-65
2022/10/16 09:42:25;;;;;;;4.10;2.03;;;53.70;11.80;;;;;;5014387;28;20930;-64
2022/10/16 09:44:53;;;;;;;2.53;1.67;;;53.80;12.00;;;;;;5014576;28;20450;-64
2022/10/16 09:47:24;;;;;;;2.80;1.80;;;53.90;11.90;;;;;;5014263;28;20831;-65
2022/10/16 09:49:58;;;;;;;4.00;2.23;;;53.90;11.70;;;;;;5014110;28;20493;-64
2022/10/16 09:52:26;;;;;;;2.73;2.20;;;53.50;11.40;;;;;;5014295;28;20438;-64
2022/10/16 09:54:56;;;;;;;6.13;1.90;;;;;;;;;;5014401;28;20929;-64
2022/10/16 09:57:24;;;;;;;2.50;2.00;;;;;;;;;;5014198;28;20926;-64
2022/10/16 09:59:52;;;;;;;3.27;1.97;;;;;;;;;;5014072;28;20445;-64
2022/10/16 10:02:21;;;;;;;2.57;2.20;;;;;;;;;;5014100;28;20446;-65
2022/10/16 10:04:53;;;;;;;3.10;2.80;;;;;;;;;;5013859;28;20482;-64
2022/10/16 10:07:25;;;;;;;3.27;2.27;;;;;;;;;;5014178;28;20439;-64
2022/10/16 10:09:52;;;;;;;3.77;1.80;;;;;;;;;;5013710;28;20443;-64
2022/10/16 10:12:21;;;;;;;6.10;2.47;;;;;;;;;;5013717;28;20521;-62
2022/10/16 10:14:49;;;;;;;6.53;2.30;;;53.70;11.70;;;;;;5013836;28;20439;-62
2022/10/16 10:17:19;;;;;;;1.83;1.27;;;55.60;10.60;;;;;;5013402;28;20473;-62
2022/10/16 10:19:50;;;;;;;2.53;2.07;;;56.10;10.10;;;;;;5013842;28;21291;-62
2022/10/16 10:22:31;;;;;;;2.10;1.60;;;55.80;10.30;;;;;;5012689;28;20493;-62
2022/10/16 10:25:09;;;;;;;3.77;2.23;;;54.60;9.70;;;;;;5013456;28;20482;-63
2022/10/16 10:27:44;;;;;;;2.40;1.90;;;53.20;10.50;;;;;;5013797;28;20861;-62
2022/10/16 10:30:20;;;;;;;2.50;2.10;;;52.30;10.90;;;;;;5013356;28;20496;-62
2022/10/16 10:32:57;;;;;;;2.73;2.10;;;52.10;10.90;;;;;;5013727;28;20453;-62
2022/10/16 10:35:32;;;;;;;2.20;1.77;;;51.90;11.20;;;;;;5013584;28;21003;-61
2022/10/16 10:38:14;;;;;;;6.50;1.60;;;51.10;12.00;;;;;;5013444;28;20520;-62
2022/10/16 10:40:49;;;;;;;3.40;1.77;;;50.70;11.30;;;;;;5012773;28;20485;-62
2022/10/16 10:43:32;;;;;;;4.60;1.67;;;49.20;10.80;;;;;;5013168;28;21026;-63
2022/10/16 10:46:04;;;;;;;2.50;1.60;;;46.80;11.60;;;;;;5013667;28;20933;-62
2022/10/16 10:48:51;;;;;;;2.87;1.70;;;45.50;12.70;;;;;;5013154;28;20486;-63
2022/10/16 10:51:26;;;;;;;3.00;1.90;;;44.40;14.10;;;;;;5013489;28;20438;-62
2022/10/16 10:54:03;;;;;;;2.40;1.70;;;45.10;14.90;;;;;;5013341;28;20893;-63
2022/10/16 10:56:43;;;;;;;2.83;1.87;;;47.20;13.70;;;;;;5013242;28;20442;-63
2022/10/16 10:59:21;;;;;;;2.17;1.33;;;;;;;;;;5013487;28;20840;-63
2022/10/16 11:01:55;;;;;;;2.43;1.50;;;50.70;12.40;;;;;;5013484;28;21087;-63
2022/10/16 11:04:49;;;;;;;2.93;1.67;;;52.30;10.90;;;;;;5013286;28;20478;-63
2022/10/16 11:07:21;;;;;;;2.43;1.50;;;53.30;10.10;;;;;;5013258;28;20811;-63
2022/10/16 11:09:54;;;;;;;5.03;1.40;;;53.80;9.50;;;;;;5013334;28;20439;-63
2022/10/16 11:12:26;;;;;;;2.50;1.20;;;54.30;10.00;;;;;;5013191;28;20967;-63
2022/10/16 11:14:59;;;;;;;6.20;2.80;;;54.80;8.90;;;;;;5013141;28;20918;-63
2022/10/16 11:17:29;;;;;;;2.77;1.50;;;55.30;9.50;;;;;;5013246;28;20552;-63
2022/10/16 11:20:01;;;;;;;2.93;1.30;;;56.00;8.80;;;;;;5012697;28;20526;-65
2022/10/16 11:22:33;;;;;;;2.37;1.50;;;56.00;8.20;;;;;;5012718;28;20936;-64
2022/10/16 11:25:12;;;;;;;1.90;1.10;;;55.80;9.30;;;;;;5012844;28;20556;-63
2022/10/16 11:27:43;;;;;;;1.93;1.20;;;56.10;9.00;;;;;;5012676;28;20950;-63
2022/10/16 11:30:17;;;;;;;2.67;1.53;;;56.20;8.40;;;;;;5013007;28;20438;-63
2022/10/16 11:32:55;;;;;;;2.33;1.50;;;56.30;8.70;;;;;;5013426;28;20442;-63
2022/10/16 11:35:26;;;;;;;2.23;1.50;;;56.70;8.40;;;;;;5016975;28;20927;-63
2022/10/16 11:37:54;;;;;;;2.47;1.50;;;57.00;8.50;;;;;;5016545;28;20466;-63
2022/10/16 11:40:26;;;;;;;4.10;1.67;;;56.80;8.80;;;;;;5016413;28;20813;-64
2022/10/16 11:42:59;;;;;;;3.90;1.40;;;56.50;8.60;;;;;;5016744;28;20497;-63
2022/10/16 11:45:35;;;;;;;2.10;1.63;;;56.40;8.50;;;;;;5016693;28;20543;-64
2022/10/16 11:48:13;;;;;;;2.53;1.13;;;56.60;8.80;;;;;;5016575;28;20433;-65
2022/10/16 11:50:44;;;;;;;1.90;1.30;;;56.50;8.20;;;;;;5016596;28;20457;-63
2022/10/16 11:53:19;;;;;;;3.47;1.50;;;56.40;8.40;;;;;;5016260;28;20477;-64
2022/10/16 11:55:47;;;;;;;1.83;1.00;;;56.40;8.70;;;;;;5016353;28;20500;-63
2022/10/16 11:58:24;;;;;;;3.80;1.10;;;56.50;9.00;;;;;;5016379;28;20442;-64
2022/10/16 12:00:58;;;;;;;1.90;1.07;;;56.70;8.40;;;;;;5016381;28;20437;-63
2022/10/16 12:03:30;;;;;;;1.87;0.90;;;56.90;7.80;;;;;;5016325;28;20433;-63
2022/10/16 12:06:14;;;;;;;1.83;0.80;;;56.90;7.50;;;;;;5016422;28;20488;-64
2022/10/16 12:08:44;;;;;;;1.70;0.73;;;56.80;7.20;;;;;;5016213;28;20442;-63
2022/10/16 12:11:32;;;;;;;1.80;0.90;;;56.80;7.10;;;;;;5016146;28;20439;-64
2022/10/16 12:14:22;;;;;;;1.70;0.70;;;56.80;7.20;;;;;;5016278;28;20857;-64
2022/10/16 12:16:54;;;;;;;1.70;0.93;;;56.90;7.10;;;;;;5016200;28;20840;-63
2022/10/16 12:19:22;;;;;;;1.63;0.97;;;56.80;7.00;;;;;;5015906;28;20504;-63
2022/10/16 12:21:51;;;;;;;2.93;1.10;;;56.70;7.20;;;;;;5016211;28;20450;-63
2022/10/16 12:24:28;;;;;;;2.33;1.10;;;56.60;7.10;;;;;;5015763;28;20485;-63
2022/10/16 12:26:57;;;;;;;2.83;1.20;;;56.40;7.10;;;;;;5015719;28;20448;-63
2022/10/16 12:29:36;;;;;;;1.90;0.87;;;56.20;6.80;;;;;;5015882;28;20447;-63
2022/10/16 12:32:06;;;;;;;2.60;0.90;;;56.00;7.20;;;;;;5015858;28;20787;-63
2022/10/16 12:34:40;;;;;;;1.67;0.77;;;55.30;7.40;;;;;;5015581;28;20442;-63
2022/10/16 12:37:13;;;;;;;2.10;1.03;;;54.80;7.70;;;;;;5015418;28;20462;-63
2022/10/16 12:39:41;;;;;;;3.00;1.17;;;54.40;7.40;;;;;;5015413;28;20500;-64
2022/10/16 12:42:24;;;;;;;2.10;1.10;;;54.20;8.10;;;;;;5014965;28;20438;-63
2022/10/16 12:44:51;;;;;;;2.00;0.80;;;54.10;7.70;;;;;;5014597;28;20498;-64
2022/10/16 12:47:24;;;;;;;1.73;0.90;;;53.90;7.70;;;;;;5015626;28;20439;-63
2022/10/16 12:49:52;;;;;;;2.00;1.27;;;53.60;7.60;;;;;;5015415;28;20864;-63
2022/10/16 12:52:28;;;;;;;2.57;0.97;;;53.20;8.20;;;;;;5015143;28;20509;-63
2022/10/16 12:54:59;;;;;;;3.10;1.00;;;52.80;7.10;;;;;;5015235;28;20557;-63
2022/10/16 12:57:43;;;;;;;2.47;1.00;;;52.40;7.70;;;;;;5015292;28;20833;-63
2022/10/16 13:00:21;;;;;;;2.77;1.20;;;52.10;8.40;;;;;;5015083;28;20442;-63
2022/10/16 13:03:17;;;;;;;1.90;1.10;;;51.70;8.90;;;;;;5015305;28;20938;-63
2022/10/16 13:05:58;;;;;;;1.80;0.90;;;51.10;9.10;;;;;;5015126;28;21047;-63